Time;durP1;ratioP1;P1;durP2;ratioP2;P2;SDS_P1;SDS_P2;PMS_P1;PMS_P2;Temp;Humidity;BMP_temperature;BMP_pressure;BME280_temperature;BME280_humidity;BME280_pressure;Samples;Min_cycle;Max_cycle;Signal;HPM_P1;HPM_P2
2023/10/27 00:00:52;;;;;;;0.50;0.40;;;10.60;99.90;;;;;;5084619;28;20429;-78
2023/10/27 00:03:19;;;;;;;0.50;0.40;;;10.60;99.90;;;;;;5083623;28;20455;-81
2023/10/27 00:05:46;;;;;;;1.98;1.88;;;10.60;99.90;;;;;;5084484;28;20477;-81
2023/10/27 00:08:14;;;;;;;0.50;0.40;;;10.60;99.90;;;;;;5083813;28;20186;-79
2023/10/27 00:10:41;;;;;;;0.43;0.40;;;10.50;99.90;;;;;;5085017;28;20436;-81
2023/10/27 00:13:08;;;;;;;0.50;0.40;;;10.50;99.90;;;;;;5084285;28;20519;-82
2023/10/27 00:15:35;;;;;;;0.50;0.40;;;10.50;99.90;;;;;;5080313;28;20894;-87
2023/10/27 00:18:02;;;;;;;0.50;0.40;;;10.50;99.90;;;;;;5072352;28;20429;-86
2023/10/27 00:20:29;;;;;;;0.50;0.40;;;10.50;99.90;;;;;;5078502;28;20432;-82
2023/10/27 00:22:55;;;;;;;0.50;0.40;;;10.50;99.90;;;;;;5079188;28;20432;-85
2023/10/27 00:25:25;;;;;;;0.50;0.40;;;10.50;99.90;;;;;;5078580;28;20210;-86
2023/10/27 00:27:52;;;;;;;0.50;0.40;;;10.50;99.90;;;;;;5077739;28;20432;-81
2023/10/27 00:30:19;;;;;;;0.50;0.40;;;10.50;99.90;;;;;;5082933;28;20433;-81
2023/10/27 00:32:46;;;;;;;0.50;0.40;;;10.50;99.90;;;;;;5083659;28;20497;-80
2023/10/27 00:35:12;;;;;;;0.50;0.40;;;10.50;99.90;;;;;;5083429;28;20472;-81
2023/10/27 00:37:40;;;;;;;0.50;0.30;;;10.50;99.90;;;;;;5081604;28;20553;-80
2023/10/27 00:40:08;;;;;;;0.47;0.40;;;10.50;99.90;;;;;;5083097;28;20444;-82
2023/10/27 00:42:36;;;;;;;0.50;0.40;;;10.50;99.90;;;;;;5082323;28;20428;-81
2023/10/27 00:45:04;;;;;;;0.50;0.45;;;10.50;99.90;;;;;;5083993;28;20481;-81
2023/10/27 00:47:31;;;;;;;0.50;0.40;;;10.50;99.90;;;;;;5083539;28;20617;-81
2023/10/27 00:49:59;;;;;;;0.50;0.40;;;10.50;99.90;;;;;;5082962;28;20443;-77
2023/10/27 00:52:27;;;;;;;0.50;0.40;;;10.50;99.90;;;;;;5083298;28;20486;-80
2023/10/27 00:54:54;;;;;;;0.50;0.40;;;10.60;99.90;;;;;;5083579;28;20218;-80
2023/10/27 00:57:22;;;;;;;0.50;0.50;;;10.50;99.90;;;;;;5083638;28;20938;-83
2023/10/27 00:59:51;;;;;;;0.50;0.40;;;10.50;99.90;;;;;;5082701;28;20214;-80
2023/10/27 01:02:18;;;;;;;0.50;0.40;;;10.50;99.90;;;;;;5082799;28;20441;-82
2023/10/27 01:04:46;;;;;;;0.45;0.40;;;10.60;99.90;;;;;;5084431;28;20979;-79
2023/10/27 01:07:13;;;;;;;0.50;0.40;;;10.60;99.90;;;;;;5086465;28;20194;-80
2023/10/27 01:09:40;;;;;;;0.40;0.40;;;10.60;99.90;;;;;;5086264;28;20490;-79
2023/10/27 01:12:07;;;;;;;0.60;0.40;;;10.70;99.90;;;;;;5086589;28;20439;-81
2023/10/27 01:14:34;;;;;;;0.77;0.60;;;10.70;99.90;;;;;;5086541;28;20211;-81
2023/10/27 01:17:02;;;;;;;0.50;0.40;;;10.70;99.90;;;;;;5086011;28;20432;-81
2023/10/27 01:19:28;;;;;;;0.50;0.40;;;10.60;99.90;;;;;;5085909;28;20439;-82
2023/10/27 01:21:55;;;;;;;0.50;0.40;;;10.60;99.90;;;;;;5085606;28;20194;-80
2023/10/27 01:24:23;;;;;;;0.50;0.40;;;10.70;99.90;;;;;;5085337;28;20449;-80
2023/10/27 01:26:50;;;;;;;0.50;0.40;;;10.80;99.90;;;;;;5075958;22;20983;-80
2023/10/27 01:29:17;;;;;;;0.50;0.40;;;10.80;99.90;;;;;;5064164;28;20205;-80
2023/10/27 01:31:44;;;;;;;0.50;0.50;;;10.80;99.90;;;;;;5073855;28;20448;-80
2023/10/27 01:34:11;;;;;;;0.50;0.33;;;10.80;99.90;;;;;;5074507;28;20433;-81
2023/10/27 01:36:38;;;;;;;0.70;0.70;;;10.70;99.90;;;;;;5072303;28;20460;-80
2023/10/27 01:39:04;;;;;;;0.43;0.40;;;10.80;99.90;;;;;;5062739;28;20532;-81
2023/10/27 01:41:33;;;;;;;2.87;1.03;;;10.80;99.90;;;;;;5062181;28;20448;-80
2023/10/27 01:43:59;;;;;;;0.47;0.40;;;10.80;99.90;;;;;;5062167;28;20442;-81
2023/10/27 01:46:26;;;;;;;0.50;0.40;;;10.80;99.90;;;;;;5062198;28;20976;-79
2023/10/27 01:48:54;;;;;;;0.47;0.40;;;10.80;99.90;;;;;;5065992;28;20443;-81
2023/10/27 01:51:20;;;;;;;0.50;0.40;;;10.80;99.90;;;;;;5065751;28;20920;-81
2023/10/27 01:53:48;;;;;;;0.50;0.40;;;10.80;99.90;;;;;;5062667;28;20809;-82
2023/10/27 01:56:15;;;;;;;0.50;0.40;;;10.80;99.90;;;;;;5062120;28;20468;-82
2023/10/27 01:58:45;;;;;;;0.50;0.40;;;10.80;99.90;;;;;;5061629;28;20438;-81
2023/10/27 02:01:12;;;;;;;0.50;0.40;;;10.80;99.90;;;;;;5053995;28;20450;-82
2023/10/27 02:03:39;;;;;;;0.50;0.40;;;10.70;99.90;;;;;;5062056;28;20294;-82
2023/10/27 02:06:06;;;;;;;0.60;0.60;;;10.70;99.90;;;;;;5067580;28;20550;-81
2023/10/27 02:08:35;;;;;;;0.50;0.30;;;10.70;99.90;;;;;;5064503;28;20441;-83
2023/10/27 02:11:02;;;;;;;0.50;0.40;;;10.70;99.90;;;;;;5062132;28;20246;-81
2023/10/27 02:13:30;;;;;;;0.50;0.50;;;10.70;99.90;;;;;;5061972;28;20441;-82
2023/10/27 02:15:58;;;;;;;0.60;0.47;;;10.70;99.90;;;;;;5065341;28;20465;-82
2023/10/27 02:18:25;;;;;;;0.60;0.60;;;10.60;99.90;;;;;;5065050;28;20990;-83
2023/10/27 02:20:52;;;;;;;0.50;0.40;;;10.60;99.90;;;;;;5057101;28;20531;-85
2023/10/27 02:23:19;;;;;;;0.50;0.40;;;10.60;99.90;;;;;;5058664;28;20449;-81
2023/10/27 02:25:46;;;;;;;0.50;0.50;;;10.50;99.90;;;;;;5064176;28;20509;-83
2023/10/27 02:28:12;;;;;;;0.50;0.40;;;10.50;99.90;;;;;;5065763;28;20520;-82
2023/10/27 02:30:39;;;;;;;0.50;0.40;;;10.50;99.90;;;;;;5063634;28;20209;-83
2023/10/27 02:33:07;;;;;;;0.50;0.40;;;10.40;99.90;;;;;;5058555;28;20195;-84
2023/10/27 02:35:34;;;;;;;0.50;0.40;;;10.40;99.90;;;;;;5057038;28;20237;-85
2023/10/27 02:38:04;;;;;;;0.70;0.63;;;10.40;99.90;;;;;;5069710;28;20440;-83
2023/10/27 02:40:30;;;;;;;0.50;0.40;;;10.40;99.90;;;;;;5062125;28;20533;-82
2023/10/27 02:42:57;;;;;;;1.25;1.25;;;10.30;99.90;;;;;;5049931;28;20568;-83
2023/10/27 02:45:24;;;;;;;0.60;0.50;;;10.30;99.90;;;;;;5058963;28;20708;-82
2023/10/27 02:47:51;;;;;;;0.60;0.50;;;10.30;99.90;;;;;;5075725;28;20581;-83
2023/10/27 02:50:19;;;;;;;0.70;0.70;;;10.20;99.90;;;;;;5070950;28;20816;-84
2023/10/27 02:52:46;;;;;;;0.73;0.73;;;10.20;99.90;;;;;;5061230;28;20234;-86
2023/10/27 02:55:12;;;;;;;0.50;0.40;;;10.20;99.90;;;;;;5083574;28;20228;-84
2023/10/27 02:57:39;;;;;;;0.50;0.40;;;10.20;99.90;;;;;;5064995;28;20203;-83
2023/10/27 03:00:07;;;;;;;0.50;0.40;;;10.20;99.90;;;;;;5066415;28;20266;-83
2023/10/27 03:02:34;;;;;;;0.50;0.40;;;10.20;99.90;;;;;;5069002;28;20546;-83
2023/10/27 03:05:01;;;;;;;0.50;0.40;;;10.20;99.90;;;;;;5069292;28;20658;-83
2023/10/27 03:07:29;;;;;;;0.50;0.40;;;10.20;99.90;;;;;;5067389;28;20547;-85
2023/10/27 03:09:56;;;;;;;0.50;0.40;;;10.20;99.90;;;;;;5070695;28;20263;-84
2023/10/27 03:12:23;;;;;;;0.50;0.40;;;10.20;99.90;;;;;;5070403;28;20205;-84
2023/10/27 03:14:50;;;;;;;0.50;0.40;;;10.20;99.90;;;;;;5061573;28;20199;-83
2023/10/27 03:17:16;;;;;;;0.50;0.40;;;10.20;99.90;;;;;;5068426;28;20219;-85
2023/10/27 03:19:43;;;;;;;0.50;0.40;;;10.20;99.90;;;;;;5079284;28;20200;-85
2023/10/27 03:22:10;;;;;;;0.50;0.40;;;10.20;99.90;;;;;;5081578;28;20257;-84
2023/10/27 03:24:38;;;;;;;0.50;0.40;;;10.20;99.90;;;;;;5072164;28;20633;-83
2023/10/27 03:27:05;;;;;;;0.50;0.40;;;10.20;99.90;;;;;;5073555;28;20214;-84
2023/10/27 03:29:33;;;;;;;0.47;0.40;;;10.20;99.90;;;;;;5073812;28;20226;-83
2023/10/27 03:32:00;;;;;;;0.50;0.40;;;10.30;99.90;;;;;;5073674;28;20194;-84
2023/10/27 03:34:27;;;;;;;0.50;0.40;;;10.30;99.90;;;;;;5090142;28;20190;-82
2023/10/27 03:36:53;;;;;;;0.50;0.40;;;10.30;99.90;;;;;;5078545;28;20218;-80
2023/10/27 03:39:20;;;;;;;0.50;0.50;;;10.30;99.90;;;;;;5076238;28;20226;-80
2023/10/27 03:41:48;;;;;;;0.50;0.40;;;10.30;99.90;;;;;;5077311;28;20262;-82
2023/10/27 03:44:15;;;;;;;0.50;0.40;;;10.20;99.90;;;;;;5068624;28;20195;-81
2023/10/27 03:46:42;;;;;;;0.50;0.45;;;10.30;99.90;;;;;;5085795;28;20213;-80
2023/10/27 03:49:09;;;;;;;1.45;1.35;;;10.30;99.90;;;;;;5082681;28;20262;-81
2023/10/27 03:51:36;;;;;;;0.50;0.40;;;10.30;99.90;;;;;;5082512;28;20198;-82
2023/10/27 03:54:02;;;;;;;0.50;0.40;;;10.20;99.90;;;;;;5061725;28;20248;-82
2023/10/27 03:56:31;;;;;;;0.50;0.40;;;10.20;99.90;;;;;;5085336;28;20277;-79
2023/10/27 03:58:59;;;;;;;0.47;0.40;;;10.20;99.90;;;;;;5079147;28;20445;-82
2023/10/27 04:01:27;;;;;;;0.47;0.40;;;10.20;99.90;;;;;;5072452;28;20440;-81
2023/10/27 04:03:54;;;;;;;0.50;0.40;;;10.30;99.90;;;;;;5071613;28;20205;-82
2023/10/27 04:06:21;;;;;;;0.50;0.40;;;10.20;99.90;;;;;;5086618;28;20277;-81
2023/10/27 04:08:48;;;;;;;0.50;0.40;;;10.30;99.90;;;;;;5091272;28;20488;-81
2023/10/27 04:11:15;;;;;;;0.50;0.40;;;10.20;99.90;;;;;;5085585;28;20461;-80
2023/10/27 04:13:42;;;;;;;0.50;0.40;;;10.20;99.90;;;;;;5080157;28;20507;-82
2023/10/27 04:16:10;;;;;;;0.50;0.40;;;10.20;99.90;;;;;;5080168;28;20190;-78
2023/10/27 04:18:37;;;;;;;0.50;0.40;;;10.20;99.90;;;;;;5080678;28;20256;-82
2023/10/27 04:21:04;;;;;;;0.50;0.40;;;10.20;99.90;;;;;;5076865;28;20190;-82
2023/10/27 04:23:31;;;;;;;0.50;0.40;;;10.20;99.90;;;;;;5077473;28;20441;-82
2023/10/27 04:25:58;;;;;;;0.50;0.40;;;10.30;99.90;;;;;;5082561;28;20223;-81
2023/10/27 04:28:24;;;;;;;0.50;0.40;;;10.30;99.90;;;;;;5079146;28;20202;-81
2023/10/27 04:30:53;;;;;;;0.50;0.40;;;10.30;99.90;;;;;;5072749;28;20218;-82
2023/10/27 04:33:21;;;;;;;0.50;0.40;;;10.30;99.90;;;;;;5071240;28;20187;-78
2023/10/27 04:35:48;;;;;;;0.50;0.40;;;10.40;99.90;;;;;;5079534;28;20230;-81
2023/10/27 04:38:15;;;;;;;0.50;0.40;;;10.40;99.90;;;;;;5079471;28;20449;-80
2023/10/27 04:40:42;;;;;;;0.50;0.40;;;10.40;99.90;;;;;;5072548;28;20457;-80
2023/10/27 04:43:09;;;;;;;0.50;0.37;;;10.40;99.90;;;;;;5083723;28;20219;-84
2023/10/27 04:45:36;;;;;;;0.50;0.40;;;10.40;99.90;;;;;;5083138;28;20522;-81
2023/10/27 04:48:03;;;;;;;0.50;0.40;;;10.40;99.90;;;;;;5079446;28;20455;-82
2023/10/27 04:50:32;;;;;;;0.50;0.40;;;10.40;99.90;;;;;;5098596;28;20437;-82
2023/10/27 04:52:59;;;;;;;0.50;0.40;;;10.40;99.90;;;;;;5095971;28;20198;-82
2023/10/27 04:55:26;;;;;;;0.50;0.40;;;10.40;99.90;;;;;;5077351;28;20448;-82
2023/10/27 04:57:53;;;;;;;0.50;0.40;;;10.40;99.90;;;;;;5085641;28;20443;-83
2023/10/27 05:00:20;;;;;;;0.50;0.40;;;10.40;99.90;;;;;;5077773;28;20414;-81
2023/10/27 05:02:50;;;;;;;0.50;0.40;;;10.40;99.90;;;;;;5084059;28;20234;-82
2023/10/27 05:05:18;;;;;;;0.50;0.40;;;10.40;99.90;;;;;;5072835;28;20191;-83
2023/10/27 05:07:46;;;;;;;0.50;0.40;;;10.40;99.90;;;;;;5087450;28;20483;-82
2023/10/27 05:10:13;;;;;;;0.50;0.40;;;10.40;99.90;;;;;;5086085;28;20499;-82
2023/10/27 05:12:40;;;;;;;0.50;0.30;;;10.40;99.90;;;;;;5086199;28;20501;-83
2023/10/27 05:15:08;;;;;;;0.50;0.40;;;10.40;99.90;;;;;;5077370;28;20437;-82
2023/10/27 05:17:35;;;;;;;0.50;0.40;;;10.40;99.90;;;;;;5080116;28;20439;-83
2023/10/27 05:20:03;;;;;;;0.50;0.40;;;10.40;99.90;;;;;;5084265;28;20434;-83
2023/10/27 05:22:30;;;;;;;0.50;0.40;;;10.40;99.90;;;;;;5088541;28;20465;-81
2023/10/27 05:25:01;;;;;;;0.50;0.40;;;10.40;99.90;;;;;;5082719;28;20501;-82
2023/10/27 05:27:27;;;;;;;0.50;0.40;;;10.40;99.90;;;;;;5072538;28;20298;-83
2023/10/27 05:29:55;;;;;;;0.50;0.40;;;10.40;99.90;;;;;;5073327;28;20465;-83
2023/10/27 05:32:21;;;;;;;0.50;0.40;;;10.40;99.90;;;;;;5078523;28;20431;-83
2023/10/27 05:34:48;;;;;;;0.50;0.40;;;10.40;99.90;;;;;;5083893;28;20456;-82
2023/10/27 05:37:15;;;;;;;0.50;0.40;;;10.50;99.90;;;;;;5073965;28;20446;-84
2023/10/27 05:39:42;;;;;;;0.50;0.40;;;10.50;99.90;;;;;;5088277;28;20194;-83
2023/10/27 05:42:10;;;;;;;0.50;0.40;;;10.50;99.90;;;;;;5074136;28;20445;-83
2023/10/27 05:44:37;;;;;;;0.50;0.40;;;10.50;99.90;;;;;;5081537;28;20206;-83
2023/10/27 05:47:04;;;;;;;0.50;0.40;;;10.50;99.90;;;;;;5089685;28;20496;-82
2023/10/27 05:49:31;;;;;;;0.50;0.40;;;10.50;99.90;;;;;;5073244;28;20429;-82
2023/10/27 05:52:02;;;;;;;0.50;0.40;;;10.50;99.90;;;;;;5072137;28;20465;-84
2023/10/27 05:54:29;;;;;;;0.50;0.40;;;10.50;99.90;;;;;;5081973;28;20191;-83
2023/10/27 05:56:56;;;;;;;0.50;0.40;;;10.50;99.90;;;;;;5081956;28;20211;-84
2023/10/27 05:59:24;;;;;;;0.50;0.40;;;10.50;99.90;;;;;;5091442;28;20447;-80
2023/10/27 06:01:54;;;;;;;0.50;0.40;;;10.50;99.90;;;;;;5093323;28;20433;-84
2023/10/27 06:04:20;;;;;;;0.50;0.40;;;10.50;99.90;;;;;;5079457;28;20213;-80
2023/10/27 06:06:47;;;;;;;0.50;0.40;;;10.40;99.90;;;;;;5081587;28;20549;-83
2023/10/27 06:09:14;;;;;;;0.50;0.40;;;10.40;99.90;;;;;;5092173;28;20214;-80
2023/10/27 06:11:41;;;;;;;0.50;0.33;;;10.50;99.90;;;;;;5076406;28;20991;-81
2023/10/27 06:14:08;;;;;;;0.50;0.40;;;10.50;99.90;;;;;;5072700;28;20438;-80
2023/10/27 06:16:37;;;;;;;0.50;0.40;;;10.50;99.90;;;;;;5080043;28;20465;-81
2023/10/27 06:19:04;;;;;;;0.50;0.40;;;10.50;99.90;;;;;;5080222;28;20492;-82
2023/10/27 06:21:31;;;;;;;0.50;0.40;;;10.40;99.90;;;;;;5072699;28;20191;-81
2023/10/27 06:23:58;;;;;;;0.50;0.40;;;10.40;99.90;;;;;;5073760;28;20206;-84
2023/10/27 06:26:25;;;;;;;1.63;1.53;;;10.30;99.90;;;;;;5080638;28;20477;-85
2023/10/27 06:28:52;;;;;;;0.60;0.60;;;10.30;99.90;;;;;;5096157;28;20505;-84
2023/10/27 06:31:19;;;;;;;0.50;0.40;;;10.20;99.90;;;;;;5086854;28;20421;-83
2023/10/27 06:33:48;;;;;;;0.50;0.40;;;10.20;99.90;;;;;;5085627;28;20437;-85
2023/10/27 06:36:14;;;;;;;5.30;1.67;;;10.20;99.90;;;;;;5080765;28;20518;-84
2023/10/27 06:38:41;;;;;;;0.50;0.40;;;10.20;99.90;;;;;;5087696;28;20214;-83
2023/10/27 06:41:08;;;;;;;11.57;10.75;;;10.20;99.90;;;;;;5074777;28;20230;-83
2023/10/27 06:43:35;;;;;;;0.50;0.40;;;10.20;99.90;;;;;;5075356;28;20210;-84
2023/10/27 06:46:02;;;;;;;1.17;1.08;;;10.20;99.90;;;;;;5073852;28;20242;-84
2023/10/27 06:48:29;;;;;;;0.50;0.40;;;10.20;99.90;;;;;;5078900;28;20208;-82
2023/10/27 06:50:57;;;;;;;0.50;0.40;;;10.10;99.90;;;;;;5094210;28;20229;-85
2023/10/27 06:53:24;;;;;;;0.50;0.40;;;10.10;99.90;;;;;;5093550;28;20193;-83
2023/10/27 06:55:51;;;;;;;0.50;0.50;;;10.10;99.90;;;;;;5094595;28;20283;-84
2023/10/27 06:58:18;;;;;;;0.50;0.40;;;10.10;99.90;;;;;;5089021;28;20187;-82
2023/10/27 07:00:44;;;;;;;0.50;0.40;;;10.10;99.90;;;;;;5072182;28;20258;-82
2023/10/27 07:03:11;;;;;;;0.50;0.40;;;10.10;99.90;;;;;;5074978;28;20461;-85
2023/10/27 07:05:38;;;;;;;0.50;0.40;;;10.10;99.90;;;;;;5079348;28;20464;-82
2023/10/27 07:08:06;;;;;;;0.50;0.40;;;10.10;99.90;;;;;;5073140;28;20215;-80
2023/10/27 07:10:33;;;;;;;0.50;0.40;;;10.10;99.90;;;;;;5078241;28;20201;-80
2023/10/27 07:13:00;;;;;;;0.50;0.40;;;10.10;99.90;;;;;;5091122;28;20258;-82
2023/10/27 07:15:27;;;;;;;0.50;0.40;;;10.10;99.90;;;;;;5093271;28;20265;-81
2023/10/27 07:17:54;;;;;;;0.50;0.40;;;10.10;99.90;;;;;;5092543;28;20213;-81
2023/10/27 07:20:20;;;;;;;0.50;0.40;;;10.20;99.90;;;;;;5092481;28;20421;-80
2023/10/27 07:22:47;;;;;;;0.50;0.40;;;10.20;99.90;;;;;;5092225;28;20443;-81
2023/10/27 07:25:15;;;;;;;0.50;0.40;;;10.30;99.90;;;;;;5090926;28;20437;-79
2023/10/27 07:27:43;;;;;;;0.47;0.40;;;10.30;99.90;;;;;;5093242;22;20486;-84
2023/10/27 07:30:11;;;;;;;0.50;0.40;;;10.40;99.90;;;;;;5063413;28;20434;-79
2023/10/27 07:32:37;;;;;;;0.43;0.30;;;10.40;99.90;;;;;;5063582;28;20464;-81
2023/10/27 07:35:05;;;;;;;0.50;0.30;;;10.40;99.90;;;;;;5063079;28;20434;-80
2023/10/27 07:37:32;;;;;;;0.50;0.30;;;10.50;99.90;;;;;;5065517;28;20840;-80
2023/10/27 07:39:58;;;;;;;0.50;0.40;;;10.50;99.90;;;;;;5081714;28;20527;-80
2023/10/27 07:42:27;;;;;;;0.50;0.40;;;10.60;99.90;;;;;;5082701;28;20451;-84
2023/10/27 07:44:55;;;;;;;0.50;0.40;;;10.60;99.90;;;;;;5082324;28;20932;-84
2023/10/27 07:47:22;;;;;;;0.50;0.50;;;10.50;99.90;;;;;;5080995;28;20560;-81
2023/10/27 07:49:48;;;;;;;0.50;0.40;;;10.50;99.90;;;;;;5080681;28;20441;-81
2023/10/27 07:52:15;;;;;;;0.50;0.40;;;10.40;99.90;;;;;;5080759;28;20437;-80
2023/10/27 07:54:42;;;;;;;0.50;0.40;;;10.50;99.90;;;;;;5082079;28;20455;-81
2023/10/27 07:57:09;;;;;;;0.47;0.40;;;10.50;99.90;;;;;;5081958;28;20478;-81
2023/10/27 07:59:37;;;;;;;0.47;0.40;;;10.60;99.90;;;;;;5082036;28;20209;-80
2023/10/27 08:02:04;;;;;;;0.50;0.40;;;10.60;99.90;;;;;;5083406;28;20447;-81
2023/10/27 08:04:32;;;;;;;0.50;0.30;;;10.70;99.90;;;;;;5083450;28;20447;-82
2023/10/27 08:06:59;;;;;;;0.60;0.60;;;10.70;99.90;;;;;;5082818;28;20476;-81
2023/10/27 08:09:29;;;;;;;2.77;1.23;;;10.70;99.90;;;;;;5083413;28;20436;-82
2023/10/27 08:11:56;;;;;;;0.50;0.40;;;10.80;99.90;;;;;;5083007;28;20444;-81
2023/10/27 08:14:23;;;;;;;0.70;0.70;;;10.70;99.90;;;;;;5081904;28;20433;-81
2023/10/27 08:16:51;;;;;;;0.85;0.85;;;10.70;99.90;;;;;;5082939;28;20457;-81
2023/10/27 08:19:18;;;;;;;0.50;0.40;;;10.60;99.90;;;;;;5085867;28;20213;-80
2023/10/27 08:21:46;;;;;;;0.50;0.40;;;10.60;99.90;;;;;;5087143;28;20445;-80
2023/10/27 08:24:13;;;;;;;0.50;0.43;;;10.60;99.90;;;;;;5085412;28;20437;-81
2023/10/27 08:26:40;;;;;;;0.70;0.70;;;10.60;99.90;;;;;;5082554;28;20463;-82
2023/10/27 08:29:07;;;;;;;0.40;0.40;;;10.60;99.90;;;;;;5082889;28;20209;-82
2023/10/27 08:31:33;;;;;;;0.93;0.50;;;10.50;99.90;;;;;;5083316;28;20440;-81
2023/10/27 08:34:04;;;;;;;0.50;0.40;;;10.50;99.90;;;;;;5083330;28;20289;-80
2023/10/27 08:36:31;;;;;;;1.67;0.98;;;10.60;99.90;;;;;;5075396;28;20198;-81
2023/10/27 08:38:57;;;;;;;0.50;0.40;;;10.60;99.90;;;;;;5083814;28;20209;-82
2023/10/27 08:41:26;;;;;;;0.50;0.40;;;10.60;99.90;;;;;;5083230;28;20285;-82
2023/10/27 08:43:54;;;;;;;0.50;0.40;;;10.70;99.90;;;;;;5082912;28;20275;-81
2023/10/27 08:46:22;;;;;;;0.50;0.40;;;10.70;99.90;;;;;;5082570;28;20452;-82
2023/10/27 08:48:49;;;;;;;0.70;0.52;;;10.70;99.90;;;;;;5083062;28;20218;-82
2023/10/27 08:51:20;;;;;;;0.50;0.40;;;10.70;99.90;;;;;;5082944;28;20202;-81
2023/10/27 08:53:46;;;;;;;0.50;0.40;;;10.70;99.90;;;;;;5083468;28;20208;-81
2023/10/27 08:56:14;;;;;;;1.03;1.03;;;10.80;99.90;;;;;;5082691;28;20448;-82
2023/10/27 08:58:41;;;;;;;0.40;0.40;;;10.70;99.90;;;;;;5083277;28;20461;-81
2023/10/27 09:01:08;;;;;;;0.43;0.40;;;10.80;99.90;;;;;;5082969;28;20447;-80
2023/10/27 09:03:35;;;;;;;2.78;2.58;;;10.90;99.90;;;;;;5083864;28;20456;-80
2023/10/27 09:06:01;;;;;;;0.50;0.40;;;10.90;99.90;;;;;;5083734;28;20220;-83
2023/10/27 09:08:30;;;;;;;0.50;0.40;;;10.90;99.90;;;;;;5082035;28;20225;-80
2023/10/27 09:10:56;;;;;;;0.60;0.60;;;10.90;99.90;;;;;;5082061;28;20436;-80
2023/10/27 09:13:23;;;;;;;1.00;0.90;;;11.00;99.90;;;;;;5083837;28;20539;-82
2023/10/27 09:15:51;;;;;;;0.47;0.40;;;11.10;99.90;;;;;;5082571;28;20470;-82
2023/10/27 09:18:18;;;;;;;0.50;0.40;;;11.00;99.90;;;;;;5081777;28;20472;-84
2023/10/27 09:20:49;;;;;;;0.50;0.40;;;11.10;99.90;;;;;;5083314;28;20444;-82
2023/10/27 09:23:16;;;;;;;0.50;0.40;;;11.10;99.90;;;;;;5082098;28;20443;-81
2023/10/27 09:25:46;;;;;;;0.73;0.73;;;11.10;99.90;;;;;;5083820;28;20439;-78
2023/10/27 09:28:13;;;;;;;0.50;0.40;;;11.10;99.90;;;;;;5084743;28;20484;-82
2023/10/27 09:30:41;;;;;;;1.80;1.70;;;11.20;99.90;;;;;;5085409;28;20475;-81
2023/10/27 09:33:13;;;;;;;1.67;1.50;;;11.20;99.90;;;;;;5084656;28;20468;-81
2023/10/27 09:35:40;;;;;;;1.95;0.90;;;11.20;99.90;;;;;;5085912;28;20445;-82
2023/10/27 09:38:08;;;;;;;1.57;1.47;;;11.10;99.90;;;;;;5086025;28;20217;-81
2023/10/27 09:40:36;;;;;;;0.60;0.40;;;11.20;99.90;;;;;;5076851;28;20456;-78
2023/10/27 09:43:04;;;;;;;0.47;0.43;;;11.20;99.90;;;;;;5084436;28;20445;-81
2023/10/27 09:45:34;;;;;;;0.90;0.63;;;11.20;99.90;;;;;;5078042;28;20551;-82
2023/10/27 09:48:03;;;;;;;0.90;0.80;;;11.20;99.90;;;;;;5085440;28;20480;-80
2023/10/27 09:50:31;;;;;;;2.17;2.07;;;11.20;99.90;;;;;;5086508;28;20444;-82
2023/10/27 09:52:59;;;;;;;1.90;1.47;;;11.20;99.90;;;;;;5086642;28;20817;-81
2023/10/27 09:55:25;;;;;;;0.50;0.40;;;11.20;99.90;;;;;;5085795;28;20759;-82
2023/10/27 09:57:52;;;;;;;0.87;0.70;;;11.30;99.90;;;;;;5086130;28;20464;-80
2023/10/27 10:00:23;;;;;;;0.50;0.40;;;11.30;99.90;;;;;;5084557;28;20443;-82
2023/10/27 10:02:50;;;;;;;2.73;2.50;;;11.40;99.90;;;;;;5084658;28;20421;-81
2023/10/27 10:05:17;;;;;;;0.97;0.97;;;11.50;99.90;;;;;;5085674;28;20437;-81
2023/10/27 10:07:47;;;;;;;0.50;0.40;;;11.50;99.90;;;;;;5085481;28;20564;-82
2023/10/27 10:10:30;;;;;;;0.50;0.40;;;11.50;99.90;;;;;;5085505;28;20440;-80
2023/10/27 10:13:00;;;;;;;0.50;0.40;;;11.50;99.90;;;;;;5086476;28;20436;-82
2023/10/27 10:15:29;;;;;;;1.10;0.50;;;11.60;99.90;;;;;;5085732;28;20911;-81
2023/10/27 10:17:56;;;;;;;0.73;0.70;;;11.60;99.90;;;;;;5086160;28;20835;-82
2023/10/27 10:20:57;;;;;;;0.60;0.50;;;11.50;99.90;;;;;;5085429;28;20445;-82
2023/10/27 10:23:25;;;;;;;0.50;0.40;;;11.50;99.90;;;;;;5081121;28;20198;-81
2023/10/27 10:25:54;;;;;;;0.50;0.40;;;11.50;99.90;;;;;;5085968;28;20429;-80
2023/10/27 10:28:33;;;;;;;0.50;0.40;;;11.50;99.90;;;;;;5088163;28;20508;-81
2023/10/27 10:31:24;;;;;;;0.90;0.73;;;11.50;99.90;;;;;;5087431;28;20989;-82
2023/10/27 10:33:52;;;;;;;0.50;0.40;;;11.60;99.90;;;;;;5077327;28;20869;-82
2023/10/27 10:36:26;;;;;;;0.40;0.40;;;11.60;99.90;;;;;;5085133;28;20490;-81
2023/10/27 10:39:04;;;;;;;4.30;1.30;;;11.60;99.90;;;;;;5084101;28;20539;-81
2023/10/27 10:41:59;;;;;;;0.90;0.90;;;11.60;99.90;;;;;;5083902;28;20447;-82
2023/10/27 10:44:28;;;;;;;1.33;1.13;;;11.60;99.90;;;;;;5084764;28;20441;-82
2023/10/27 10:46:56;;;;;;;0.80;0.80;;;11.70;99.90;;;;;;5083651;28;20463;-79
2023/10/27 10:49:24;;;;;;;0.70;0.70;;;11.70;99.90;;;;;;5083392;28;20473;-81
2023/10/27 10:51:53;;;;;;;0.97;0.97;;;11.80;99.90;;;;;;5083904;28;20456;-82
2023/10/27 10:54:25;;;;;;;1.93;1.80;;;11.80;99.90;;;;;;5083497;28;20441;-81
2023/10/27 10:57:07;;;;;;;1.70;1.60;;;11.80;99.90;;;;;;5084506;28;20492;-81
2023/10/27 10:59:35;;;;;;;0.97;0.97;;;11.90;99.90;;;;;;5085266;28;20425;-77
2023/10/27 11:02:05;;;;;;;0.50;0.40;;;12.00;99.90;;;;;;5084888;28;20442;-80
2023/10/27 11:04:33;;;;;;;2.60;2.40;;;12.00;99.90;;;;;;5084317;28;20508;-81
2023/10/27 11:07:02;;;;;;;1.27;1.17;;;12.00;99.90;;;;;;5082574;28;20467;-81
2023/10/27 11:09:31;;;;;;;3.40;2.93;;;11.90;99.90;;;;;;5082631;28;20476;-80
2023/10/27 11:11:58;;;;;;;7.03;1.40;;;12.00;99.90;;;;;;5081787;28;20964;-82
2023/10/27 11:14:25;;;;;;;2.37;1.80;;;12.10;99.90;;;;;;5082060;28;20520;-82
2023/10/27 11:16:59;;;;;;;1.30;1.20;;;12.00;99.90;;;;;;5082363;28;20460;-82
2023/10/27 11:19:27;;;;;;;0.97;0.97;;;12.10;99.90;;;;;;5082414;28;20435;-82
2023/10/27 11:21:55;;;;;;;1.10;0.77;;;12.10;99.90;;;;;;5082322;28;20432;-84
2023/10/27 11:24:22;;;;;;;1.60;1.35;;;12.10;99.90;;;;;;5082830;28;20887;-82
2023/10/27 11:26:50;;;;;;;0.50;0.50;;;12.10;99.90;;;;;;5081990;28;20691;-81
2023/10/27 11:29:16;;;;;;;0.50;0.40;;;12.10;99.90;;;;;;5082000;28;20473;-82
2023/10/27 11:31:45;;;;;;;1.53;1.43;;;12.00;99.90;;;;;;5081350;28;20439;-81
2023/10/27 11:34:13;;;;;;;0.50;0.50;;;12.00;99.90;;;;;;5081667;28;20444;-81
2023/10/27 11:36:47;;;;;;;0.50;0.40;;;12.00;99.90;;;;;;5081447;28;20436;-81
2023/10/27 11:39:16;;;;;;;0.50;0.40;;;12.00;99.90;;;;;;5080891;28;20445;-81
2023/10/27 11:41:44;;;;;;;0.50;0.40;;;12.10;99.90;;;;;;5080853;28;20697;-80
2023/10/27 11:44:11;;;;;;;1.53;0.83;;;12.10;99.90;;;;;;5081907;28;20448;-81
2023/10/27 11:46:38;;;;;;;1.37;1.27;;;12.10;99.90;;;;;;5081371;28;20463;-80
2023/10/27 11:49:05;;;;;;;0.50;0.40;;;12.20;99.90;;;;;;5079889;28;20479;-79
2023/10/27 11:51:31;;;;;;;0.80;0.80;;;12.10;99.90;;;;;;5080603;28;20940;-80
2023/10/27 11:54:00;;;;;;;0.50;0.40;;;12.20;99.90;;;;;;5081273;28;20517;-80
2023/10/27 11:56:26;;;;;;;0.57;0.57;;;12.20;99.90;;;;;;5081169;28;20461;-80
2023/10/27 11:58:53;;;;;;;0.50;0.40;;;12.20;99.90;;;;;;5081001;28;20459;-80
2023/10/27 12:01:20;;;;;;;0.50;0.40;;;12.20;99.90;;;;;;5085908;28;20464;-81
2023/10/27 12:03:47;;;;;;;1.03;1.03;;;12.20;99.90;;;;;;5081419;28;20450;-80
2023/10/27 12:06:14;;;;;;;1.87;1.63;;;12.10;99.90;;;;;;5081444;28;20437;-81
2023/10/27 12:08:41;;;;;;;0.60;0.60;;;12.00;99.90;;;;;;5081051;28;20483;-81
2023/10/27 12:11:09;;;;;;;3.43;2.63;;;12.00;99.90;;;;;;5082626;28;20441;-80
2023/10/27 12:13:36;;;;;;;0.60;0.57;;;11.90;99.90;;;;;;5081982;28;20662;-81
2023/10/27 12:16:03;;;;;;;1.70;1.60;;;11.80;99.90;;;;;;5082297;28;20819;-80
2023/10/27 12:18:32;;;;;;;2.80;1.17;;;11.80;99.90;;;;;;5081890;28;20540;-82
2023/10/27 12:21:01;;;;;;;4.27;0.93;;;11.80;99.90;;;;;;5080997;28;20514;-81
2023/10/27 12:23:29;;;;;;;1.37;0.90;;;11.80;99.90;;;;;;5082434;28;20429;-81
2023/10/27 12:25:57;;;;;;;0.50;0.40;;;11.80;99.90;;;;;;5082358;28;20519;-82
2023/10/27 12:28:27;;;;;;;0.83;0.80;;;11.80;99.90;;;;;;5081549;28;20603;-82
2023/10/27 12:30:54;;;;;;;6.37;1.03;;;11.80;99.90;;;;;;5074710;28;20444;-82
2023/10/27 12:33:21;;;;;;;0.50;0.40;;;11.70;99.90;;;;;;5082994;28;20451;-81
2023/10/27 12:35:48;;;;;;;0.60;0.40;;;11.70;99.90;;;;;;5095057;28;20463;-79
2023/10/27 12:38:16;;;;;;;0.70;0.57;;;11.70;99.90;;;;;;5086405;28;20565;-83
2023/10/27 12:40:44;;;;;;;3.47;3.27;;;11.80;99.90;;;;;;5082997;28;20433;-82
2023/10/27 12:43:11;;;;;;;2.33;1.60;;;11.90;99.90;;;;;;5082779;28;20440;-82
2023/10/27 12:45:39;;;;;;;0.50;0.40;;;11.80;99.90;;;;;;5082629;28;20500;-83
2023/10/27 12:48:07;;;;;;;1.17;1.03;;;11.90;99.90;;;;;;5082428;28;20539;-81
2023/10/27 12:50:35;;;;;;;1.53;1.43;;;11.90;99.90;;;;;;5083363;28;20440;-81